Time;durP1;ratioP1;P1;durP2;ratioP2;P2;SDS_P1;SDS_P2;PMS_P1;PMS_P2;Temp;Humidity;BMP_temperature;BMP_pressure;BME280_temperature;BME280_humidity;BME280_pressure;Samples;Min_cycle;Max_cycle;Signal;HPM_P1;HPM_P2
2022/04/16 00:01:11;;;;;;;7.05;4.90;;;;;;;11.99;79.69;100443.03;4899534;29;20474;-77
2022/04/16 00:03:41;;;;;;;7.85;5.53;;;;;;;11.89;80.52;100430.34;4899839;29;20049;-76
2022/04/16 00:06:10;;;;;;;7.95;5.63;;;;;;;11.82;81.14;100442.34;4882988;29;20405;-77
2022/04/16 00:08:38;;;;;;;8.30;5.53;;;;;;;11.81;81.43;100433.47;4899788;29;20086;-75
2022/04/16 00:11:07;;;;;;;9.05;5.55;;;;;;;11.74;81.90;100427.63;4882702;29;20057;-73
2022/04/16 00:13:35;;;;;;;7.95;5.75;;;;;;;11.61;82.53;100432.00;4882758;29;20051;-72
2022/04/16 00:16:03;;;;;;;9.15;5.45;;;;;;;11.55;83.64;100427.03;4899280;29;20096;-76
2022/04/16 00:18:33;;;;;;;8.73;5.72;;;;;;;11.47;84.07;100427.50;4882699;29;20104;-74
2022/04/16 00:21:04;;;;;;;9.45;5.93;;;;;;;11.49;84.35;100431.91;4882449;29;20469;-74
2022/04/16 00:23:32;;;;;;;9.30;6.50;;;;;;;11.33;85.28;100426.63;4899449;29;20506;-74
2022/04/16 00:26:02;;;;;;;9.35;6.40;;;;;;;11.32;85.61;100425.78;4899226;29;20048;-75
2022/04/16 00:28:33;;;;;;;10.95;6.50;;;;;;;11.32;86.07;100436.47;4882955;29;20586;-74
2022/04/16 00:31:02;;;;;;;11.38;6.55;;;;;;;11.28;86.51;100434.03;4899053;29;20074;-72
2022/04/16 00:33:31;;;;;;;12.10;7.88;;;;;;;11.21;87.69;100432.72;4899146;29;20055;-74
2022/04/16 00:36:01;;;;;;;10.05;7.25;;;;;;;11.17;88.55;100432.03;4898845;29;20052;-74
2022/04/16 00:38:29;;;;;;;11.30;7.55;;;;;;;11.15;89.16;100428.59;4881939;29;20064;-77
2022/04/16 00:40:58;;;;;;;10.95;7.50;;;;;;;11.07;90.31;100426.38;4898686;29;20052;-75
2022/04/16 00:43:28;;;;;;;11.15;8.27;;;;;;;11.05;90.94;100428.28;4882258;29;20136;-76
2022/04/16 00:45:57;;;;;;;11.55;7.32;;;;;;;10.98;92.04;100439.41;4898864;29;20053;-76
2022/04/16 00:48:25;;;;;;;11.60;8.02;;;;;;;10.99;92.17;100447.31;4882212;29;20474;-77
2022/04/16 00:50:55;;;;;;;13.20;8.40;;;;;;;10.93;92.85;100439.69;4898618;29;20467;-77
2022/04/16 00:53:27;;;;;;;12.13;8.43;;;;;;;10.92;92.85;100445.97;4881524;29;20056;-77
2022/04/16 00:55:57;;;;;;;13.27;8.68;;;;;;;10.82;94.29;100439.47;4898885;29;20073;-77
2022/04/16 00:58:25;;;;;;;12.48;8.32;;;;;;;10.77;96.00;100442.38;4898898;29;20459;-76
2022/04/16 01:00:53;;;;;;;12.23;8.82;;;;;;;10.81;96.06;100445.75;4899005;29;20096;-75
2022/04/16 01:03:22;;;;;;;12.73;9.18;;;;;;;10.76;96.83;100446.00;4898370;29;20052;-77
2022/04/16 01:05:51;;;;;;;15.20;8.70;;;;;;;10.71;97.33;100434.75;4898890;29;20064;-76
2022/04/16 01:08:19;;;;;;;14.13;8.95;;;;;;;10.63;99.56;100442.31;4898435;29;20194;-77
2022/04/16 01:10:49;;;;;;;13.40;9.10;;;;;;;10.64;99.83;100437.84;4881893;29;20045;-76
2022/04/16 01:13:18;;;;;;;13.60;8.80;;;;;;;10.60;99.58;100431.81;4898356;29;20391;-74
2022/04/16 01:15:47;;;;;;;13.40;9.80;;;;;;;10.60;99.55;100426.47;4898272;29;20103;-75
2022/04/16 01:18:16;;;;;;;12.82;8.95;;;;;;;10.53;100.00;100443.81;4898295;29;20080;-74
2022/04/16 01:20:44;;;;;;;14.27;9.80;;;;;;;10.47;100.00;100436.13;4881885;29;20143;-75
2022/04/16 01:23:14;;;;;;;14.55;10.05;;;;;;;10.43;100.00;100447.94;4897980;29;20131;-74
2022/04/16 01:25:44;;;;;;;13.85;9.45;;;;;;;10.35;100.00;100431.50;4898546;29;20048;-75
2022/04/16 01:28:13;;;;;;;13.95;10.18;;;;;;;10.31;100.00;100430.78;4881402;29;20121;-76
2022/04/16 01:30:41;;;;;;;16.60;9.80;;;;;;;10.29;100.00;100432.69;4898196;29;20482;-76
2022/04/16 01:33:10;;;;;;;14.60;9.50;;;;;;;10.24;100.00;100442.78;4898189;29;20104;-75
2022/04/16 01:35:38;;;;;;;14.15;10.07;;;;;;;10.23;100.00;100433.91;4881694;29;20414;-75
2022/04/16 01:38:07;;;;;;;16.55;9.48;;;;;;;10.17;100.00;100423.56;4897756;29;20044;-75
2022/04/16 01:40:38;;;;;;;13.68;9.07;;;;;;;10.18;100.00;100427.06;4898578;29;20410;-75
2022/04/16 01:43:07;;;;;;;14.90;9.80;;;;;;;10.08;100.00;100418.72;4897885;29;20051;-74
2022/04/16 01:45:35;;;;;;;12.88;9.15;;;;;;;10.07;100.00;100433.00;4898311;29;20398;-75
2022/04/16 01:48:04;;;;;;;14.95;9.63;;;;;;;10.02;100.00;100419.06;4898138;29;20055;-77
2022/04/16 01:50:32;;;;;;;15.85;9.73;;;;;;;9.93;100.00;100430.22;4898905;29;20044;-78
2022/04/16 01:53:00;;;;;;;14.05;8.40;;;;;;;9.88;100.00;100418.97;4885257;29;20049;-75
2022/04/16 01:55:31;;;;;;;14.15;9.55;;;;;;;9.82;100.00;100421.97;4901959;29;20409;-74
2022/04/16 01:58:00;;;;;;;16.23;10.25;;;;;;;9.74;100.00;100431.22;4902100;29;20045;-76
2022/04/16 02:00:29;;;;;;;14.30;9.48;;;;;;;9.75;100.00;100416.97;4885504;29;20064;-76
2022/04/16 02:02:58;;;;;;;15.48;10.18;;;;;;;9.75;100.00;100410.78;4901869;29;20044;-76
2022/04/16 02:05:26;;;;;;;15.57;9.98;;;;;;;9.70;100.00;100413.69;4884964;29;20512;-76
2022/04/16 02:07:55;;;;;;;13.35;9.30;;;;;;;9.62;100.00;100417.72;4901953;29;20059;-76
2022/04/16 02:10:23;;;;;;;14.18;8.35;;;;;;;9.55;100.00;100409.19;4901769;29;20377;-75
2022/04/16 02:12:51;;;;;;;16.77;9.80;;;;;;;9.51;100.00;100407.63;4902055;29;20422;-75
2022/04/16 02:15:21;;;;;;;18.10;10.20;;;;;;;9.46;100.00;100399.03;4901641;29;20048;-75
2022/04/16 02:17:49;;;;;;;16.70;10.93;;;;;;;9.45;100.00;100405.28;4901725;29;20055;-74
2022/04/16 02:20:17;;;;;;;15.50;10.20;;;;;;;9.46;100.00;100409.69;4901550;29;20045;-74
2022/04/16 02:22:47;;;;;;;15.32;10.63;;;;;;;9.48;100.00;100398.97;4901801;29;20487;-75
2022/04/16 02:25:17;;;;;;;18.17;10.30;;;;;;;9.47;100.00;100406.09;4901442;29;20045;-74
2022/04/16 02:27:46;;;;;;;16.10;10.40;;;;;;;9.51;100.00;100410.28;4901869;29;20410;-76
2022/04/16 02:30:16;;;;;;;14.73;9.55;;;;;;;9.46;100.00;100412.34;4901328;29;20047;-75
2022/04/16 02:32:47;;;;;;;16.73;10.57;;;;;;;9.50;100.00;100397.06;4901641;29;20044;-76
2022/04/16 02:35:17;;;;;;;16.83;10.70;;;;;;;9.47;100.00;100411.41;4901063;29;20159;-73
2022/04/16 02:37:48;;;;;;;16.35;10.18;;;;;;;9.44;100.00;100403.56;4901243;29;20079;-73
2022/04/16 02:40:17;;;;;;;15.13;10.90;;;;;;;9.41;100.00;100417.06;4900692;29;20506;-73
2022/04/16 02:42:46;;;;;;;15.45;10.40;;;;;;;9.41;100.00;100403.75;4884341;29;20059;-73
2022/04/16 02:48:04;;;;;;;16.88;10.20;;;;;;;9.41;100.00;100403.75;4901308;29;20446;-72
2022/04/16 02:50:32;;;;;;;14.65;9.68;;;;;;;9.35;100.00;100390.75;4901450;29;20052;-73
2022/04/16 02:53:02;;;;;;;15.32;9.80;;;;;;;9.38;100.00;100395.94;4884304;29;20391;-73
2022/04/16 02:55:30;;;;;;;14.55;8.60;;;;;;;9.39;100.00;100392.31;4900879;29;20100;-74
2022/04/16 02:57:59;;;;;;;15.50;10.27;;;;;;;9.38;100.00;100385.28;4900862;29;20475;-75
2022/04/16 03:00:28;;;;;;;14.45;9.93;;;;;;;9.30;100.00;100392.81;4900704;29;20065;-75
2022/04/16 03:02:57;;;;;;;14.48;8.93;;;;;;;9.26;100.00;100389.41;4900034;29;20470;-76
2022/04/16 03:05:26;;;;;;;16.23;10.45;;;;;;;9.31;100.00;100394.53;4900584;29;20116;-75
2022/04/16 03:07:54;;;;;;;14.65;9.82;;;;;;;9.32;100.00;100389.09;4900763;29;20050;-75
2022/04/16 03:10:23;;;;;;;15.32;9.82;;;;;;;9.38;100.00;100390.59;4900788;29;20045;-75
2022/04/16 03:12:53;;;;;;;14.38;9.38;;;;;;;9.33;100.00;100397.94;4883974;29;20080;-74
2022/04/16 03:18:08;;;;;;;13.65;8.60;;;;;;;9.32;100.00;100396.22;4900656;29;20052;-75
2022/04/16 03:20:39;;;;;;;14.75;9.82;;;;;;;9.27;100.00;100398.28;4900303;29;20049;-75
2022/04/16 03:23:09;;;;;;;13.18;9.30;;;;;;;9.24;100.00;100398.44;4900327;29;20072;-74
2022/04/16 03:25:39;;;;;;;14.52;9.27;;;;;;;9.22;100.00;100400.31;4900767;29;20041;-74
2022/04/16 03:28:08;;;;;;;14.20;9.55;;;;;;;9.24;100.00;100388.66;4900241;29;20048;-74
2022/04/16 03:30:36;;;;;;;13.18;8.30;;;;;;;9.27;100.00;100388.50;4883578;29;20525;-74
2022/04/16 03:33:04;;;;;;;11.63;7.43;;;;;;;9.25;100.00;100395.69;4900156;29;20143;-74
2022/04/16 03:35:34;;;;;;;14.20;9.32;;;;;;;9.24;100.00;100395.78;4899720;29;20513;-74
2022/04/16 03:38:03;;;;;;;13.75;9.15;;;;;;;9.20;100.00;100391.56;4900275;29;20045;-74
2022/04/16 03:40:31;;;;;;;12.02;8.70;;;;;;;9.21;100.00;100394.13;4899872;29;20052;-74
2022/04/16 03:43:01;;;;;;;14.32;9.68;;;;;;;9.23;100.00;100386.06;4883330;29;20057;-74
2022/04/16 03:45:31;;;;;;;14.00;8.45;;;;;;;9.21;100.00;100388.81;4883402;29;20460;-78
2022/04/16 03:48:00;;;;;;;14.55;9.35;;;;;;;9.17;100.00;100388.13;4899996;29;20045;-78
2022/04/16 03:50:30;;;;;;;11.65;8.30;;;;;;;9.12;100.00;100382.16;4900036;29;20055;-75
2022/04/16 03:52:58;;;;;;;13.50;8.90;;;;;;;9.11;100.00;100385.78;4900244;29;20040;-78
2022/04/16 04:01:02;;;;;;;16.38;9.80;;;;;;;9.16;100.00;100401.50;4900209;29;20083;-74
2022/04/16 04:03:30;;;;;;;15.52;9.18;;;;;;;9.20;100.00;100399.56;4882798;29;20564;-73
2022/04/16 04:06:01;;;;;;;12.07;8.45;;;;;;;9.19;100.00;100412.00;4899713;29;20053;-73
2022/04/16 04:08:29;;;;;;;12.07;8.48;;;;;;;9.15;100.00;100411.28;4882847;29;20092;-74
2022/04/16 04:10:59;;;;;;;10.93;7.07;;;;;;;9.14;100.00;100409.56;4899731;29;20049;-74
2022/04/16 04:13:27;;;;;;;10.57;7.68;;;;;;;9.16;100.00;100412.13;4899078;29;20048;-74
2022/04/16 04:15:56;;;;;;;10.38;7.00;;;;;;;9.15;100.00;100413.94;4899579;29;20076;-73
2022/04/16 04:18:24;;;;;;;13.13;7.53;;;;;;;9.14;100.00;100409.56;4882600;29;20052;-73
2022/04/16 04:20:53;;;;;;;10.68;7.28;;;;;;;9.07;100.00;100416.16;4899313;29;20100;-73
2022/04/16 04:23:22;;;;;;;10.70;7.43;;;;;;;9.08;100.00;100419.69;4899144;29;20513;-73
2022/04/16 04:25:50;;;;;;;11.05;6.65;;;;;;;9.01;100.00;100410.28;4899432;29;20139;-74
2022/04/16 04:28:20;;;;;;;10.20;6.88;;;;;;;9.08;100.00;100422.34;4882385;29;20052;-75
2022/04/16 04:30:48;;;;;;;9.68;6.43;;;;;;;9.07;100.00;100428.56;4882615;29;20059;-75
2022/04/16 04:33:17;;;;;;;10.23;6.70;;;;;;;9.05;100.00;100439.28;4882338;29;20136;-76
2022/04/16 04:35:45;;;;;;;10.48;7.05;;;;;;;9.07;100.00;100444.53;4898962;29;20056;-75
2022/04/16 04:38:13;;;;;;;10.48;7.20;;;;;;;9.01;100.00;100444.88;4898664;29;20435;-75
2022/04/16 04:40:41;;;;;;;16.02;6.65;;;;;;;9.01;100.00;100444.88;4897829;29;20049;-74
2022/04/16 04:43:10;;;;;;;10.90;6.72;;;;;;;9.13;100.00;100437.13;4898825;29;20506;-76
2022/04/16 04:45:40;;;;;;;10.75;6.97;;;;;;;9.03;100.00;100438.53;4898958;29;20069;-76
2022/04/16 04:48:09;;;;;;;9.68;6.70;;;;;;;9.09;100.00;100438.22;4898998;29;20127;-75
2022/04/16 04:50:37;;;;;;;9.93;6.40;;;;;;;9.11;100.00;100438.13;4898569;29;20056;-76
2022/04/16 04:53:05;;;;;;;8.88;6.00;;;;;;;9.07;100.00;100445.44;4882236;29;20091;-77
2022/04/16 04:55:34;;;;;;;9.50;6.57;;;;;;;9.16;100.00;100444.94;4882068;29;20451;-76
2022/04/16 04:58:02;;;;;;;10.00;6.70;;;;;;;9.23;99.71;100450.81;4882150;29;20059;-76
2022/04/16 05:00:30;;;;;;;11.45;6.80;;;;;;;9.20;99.59;100444.78;4881599;29;20059;-75
2022/04/16 05:02:59;;;;;;;11.13;7.05;;;;;;;9.12;100.00;100451.34;4898451;29;20406;-77
2022/04/16 05:05:28;;;;;;;9.60;6.47;;;;;;;9.25;98.72;100448.06;4898579;29;20055;-76
2022/04/16 05:07:56;;;;;;;9.90;6.85;;;;;;;9.27;98.80;100446.22;4898582;29;20045;-75
2022/04/16 05:10:24;;;;;;;10.05;6.70;;;;;;;9.33;98.19;100446.72;4898350;29;20479;-73
2022/04/16 05:12:57;;;;;;;12.10;6.88;;;;;;;9.36;97.82;100451.03;4881584;29;20083;-75
2022/04/16 05:15:25;;;;;;;10.43;7.43;;;;;;;9.31;97.83;100458.41;4898328;29;20052;-76
2022/04/16 05:17:54;;;;;;;11.38;6.50;;;;;;;9.36;97.46;100445.69;4898370;29;20463;-76
2022/04/16 05:20:23;;;;;;;10.90;6.78;;;;;;;9.37;97.69;100458.09;4881679;29;20049;-77
2022/04/16 05:22:51;;;;;;;8.45;6.18;;;;;;;9.43;97.04;100452.44;4898549;29;20048;-76
2022/04/16 05:25:20;;;;;;;10.43;6.72;;;;;;;9.57;95.03;100468.56;4897791;29;20105;-78
2022/04/16 05:27:48;;;;;;;9.23;5.38;;;;;;;9.63;93.58;100462.91;4898487;29;20045;-74
2022/04/16 05:30:22;;;;;;;9.13;5.90;;;;;;;9.64;93.01;100472.59;4898141;29;20045;-77
2022/04/16 05:32:51;;;;;;;8.57;6.03;;;;;;;9.66;93.21;100469.88;4881411;29;20052;-76
2022/04/16 05:35:19;;;;;;;9.07;6.07;;;;;;;9.67;91.86;100480.44;4898316;29;20132;-78
2022/04/16 05:37:48;;;;;;;9.98;6.85;;;;;;;9.73;91.48;100460.59;4898218;29;20136;-76
2022/04/16 05:40:16;;;;;;;9.10;5.97;;;;;;;9.73;91.05;100473.91;4877923;29;20468;-78
2022/04/16 05:42:45;;;;;;;11.13;6.13;;;;;;;9.78;90.58;100471.88;4862725;29;20053;-77
2022/04/16 05:45:15;;;;;;;9.23;6.00;;;;;;;9.85;89.31;100475.97;4878549;29;20060;-78
2022/04/16 05:47:44;;;;;;;9.98;6.53;;;;;;;9.77;89.28;100485.31;4880035;29;20077;-76
2022/04/16 05:50:14;;;;;;;8.88;5.90;;;;;;;9.85;87.89;100480.44;4863326;29;20418;-76
2022/04/16 05:52:42;;;;;;;10.25;6.18;;;;;;;9.83;87.94;100493.81;4877910;29;20077;-76
2022/04/16 05:55:12;;;;;;;9.38;5.82;;;;;;;9.85;87.94;100481.28;4879435;29;20468;-77
2022/04/16 05:57:41;;;;;;;8.63;6.15;;;;;;;9.96;87.02;100484.22;4862795;29;20053;-75
2022/04/16 06:00:13;;;;;;;8.05;5.20;;;;;;;9.96;86.28;100483.38;4879242;29;20067;-75
2022/04/16 06:02:42;;;;;;;8.60;5.55;;;;;;;9.99;86.76;100485.84;4862431;29;20057;-74
2022/04/16 06:05:10;;;;;;;8.95;6.40;;;;;;;10.01;86.12;100491.97;4879141;29;20438;-76
2022/04/16 06:07:38;;;;;;;9.70;6.50;;;;;;;10.11;85.61;100498.50;4879067;29;20049;-74
2022/04/16 06:10:07;;;;;;;8.68;6.43;;;;;;;10.12;85.95;100502.91;4879067;29;20077;-75
2022/04/16 06:12:37;;;;;;;10.93;5.85;;;;;;;10.17;85.76;100503.53;4877826;29;20053;-76
2022/04/16 06:15:06;;;;;;;9.68;5.93;;;;;;;10.02;86.36;100509.66;4862639;29;20053;-76
2022/04/16 06:17:34;;;;;;;9.07;6.18;;;;;;;9.97;86.79;100506.41;4877416;29;20076;-76
2022/04/16 06:20:04;;;;;;;8.13;5.90;;;;;;;10.01;86.20;100507.94;4862403;29;20087;-76
2022/04/16 06:22:32;;;;;;;8.70;5.95;;;;;;;10.06;85.60;100515.72;4877858;29;20056;-76
2022/04/16 06:25:00;;;;;;;9.65;6.60;;;;;;;10.02;85.86;100505.19;4862655;29;20057;-77
2022/04/16 06:27:34;;;;;;;9.48;5.63;;;;;;;10.18;84.47;100505.25;4880473;29;20490;-76
2022/04/16 06:30:05;;;;;;;8.95;5.47;;;;;;;10.14;83.89;100510.84;4897668;29;20104;-75
2022/04/16 06:32:34;;;;;;;8.10;6.03;;;;;;;10.19;83.27;100514.97;4880634;29;20132;-76
2022/04/16 06:35:05;;;;;;;9.27;5.32;;;;;;;10.24;82.34;100517.44;4880980;29;20052;-75
2022/04/16 06:37:34;;;;;;;9.45;6.00;;;;;;;10.29;82.32;100518.88;4881314;29;20174;-74
2022/04/16 06:40:02;;;;;;;7.78;5.55;;;;;;;10.40;81.39;100530.75;4884411;29;20072;-75
2022/04/16 06:42:31;;;;;;;9.02;5.65;;;;;;;10.46;81.04;100519.75;4884259;29;20052;-75
2022/04/16 06:44:59;;;;;;;10.52;5.57;;;;;;;10.50;80.59;100521.28;4901818;29;20041;-76
2022/04/16 06:47:29;;;;;;;8.68;5.05;;;;;;;10.48;80.08;100524.06;4901015;29;20088;-73
2022/04/16 06:49:58;;;;;;;7.70;5.43;;;;;;;10.48;80.44;100528.53;4884582;29;20060;-73
2022/04/16 06:52:26;;;;;;;7.88;5.47;;;;;;;10.56;79.02;100524.50;4884043;29;20048;-73
2022/04/16 06:54:56;;;;;;;7.97;4.97;;;;;;;10.70;78.43;100521.03;4887565;29;20077;-77
2022/04/16 06:57:24;;;;;;;8.25;5.65;;;;;;;10.85;77.85;100530.84;4900694;29;20135;-75
2022/04/16 06:59:53;;;;;;;8.95;4.95;;;;;;;11.02;77.22;100524.56;4884237;29;20060;-77
2022/04/16 07:02:21;;;;;;;8.90;5.47;;;;;;;10.99;77.21;100529.19;4884725;29;20049;-78
2022/04/16 07:04:51;;;;;;;10.30;5.32;;;;;;;11.11;76.50;100533.84;4884683;29;20052;-77
2022/04/16 07:07:19;;;;;;;7.80;4.88;;;;;;;10.98;76.72;100533.69;4884264;29;20072;-77
2022/04/16 07:09:47;;;;;;;8.00;5.03;;;;;;;10.96;76.02;100529.38;4901110;29;20048;-76
2022/04/16 07:12:15;;;;;;;7.20;4.90;;;;;;;11.24;75.18;100540.19;4900610;29;20048;-77
2022/04/16 07:14:43;;;;;;;6.95;5.13;;;;;;;11.64;73.34;100540.50;4883886;29;20060;-76
2022/04/16 07:17:17;;;;;;;8.02;5.15;;;;;;;11.82;71.90;100542.09;4900844;29;20060;-74
2022/04/16 07:19:45;;;;;;;8.05;5.13;;;;;;;12.17;71.07;100537.28;4900322;29;20040;-74
2022/04/16 07:22:18;;;;;;;7.47;4.65;;;;;;;12.10;70.21;100543.94;4900426;29;20048;-73
2022/04/16 07:24:49;;;;;;;8.63;5.10;;;;;;;12.10;69.77;100540.41;4883671;29;20052;-75
2022/04/16 07:27:18;;;;;;;7.93;4.85;;;;;;;11.94;70.53;100546.69;4900545;29;20131;-73
2022/04/16 07:29:47;;;;;;;6.45;4.43;;;;;;;12.08;69.28;100548.53;4900144;29;20049;-74
2022/04/16 07:32:19;;;;;;;7.60;5.18;;;;;;;12.16;69.55;100550.72;4883578;29;20055;-73
2022/04/16 07:34:47;;;;;;;7.80;5.20;;;;;;;12.34;68.29;100552.25;4883273;29;20530;-76
2022/04/16 07:37:17;;;;;;;7.22;5.10;;;;;;;12.23;69.56;100557.41;4883353;29;20069;-76
2022/04/16 07:39:45;;;;;;;8.27;4.78;;;;;;;12.27;69.26;100564.31;4882612;29;20061;-75
2022/04/16 07:42:18;;;;;;;6.88;4.18;;;;;;;12.02;69.65;100560.44;4892672;29;20080;-77
2022/04/16 07:44:46;;;;;;;7.50;4.47;;;;;;;12.03;69.62;100562.16;4900345;29;20041;-76
2022/04/16 07:47:14;;;;;;;7.57;4.63;;;;;;;12.13;68.66;100554.44;4883626;29;20057;-77
2022/04/16 07:49:43;;;;;;;8.27;4.45;;;;;;;12.36;67.94;100558.38;4882662;29;20084;-76
2022/04/16 07:52:11;;;;;;;7.82;4.57;;;;;;;12.55;66.50;100556.25;4899976;29;20047;-77
2022/04/16 07:54:40;;;;;;;7.60;4.70;;;;;;;12.95;65.29;100552.84;4883247;29;20410;-74
2022/04/16 07:57:09;;;;;;;6.78;4.20;;;;;;;12.99;64.31;100547.16;4883467;29;20053;-76
2022/04/16 07:59:37;;;;;;;6.85;4.40;;;;;;;13.15;63.60;100531.81;4882991;29;20048;-76
2022/04/16 08:02:06;;;;;;;7.68;4.50;;;;;;;13.47;62.67;100539.53;4882998;29;20053;-74
2022/04/16 08:04:34;;;;;;;7.25;4.65;;;;;;;13.19;62.34;100543.22;4882671;29;20494;-77
2022/04/16 08:07:03;;;;;;;7.22;4.93;;;;;;;13.12;62.27;100541.84;4889951;29;20361;-77
2022/04/16 08:09:31;;;;;;;7.03;4.95;;;;;;;13.22;63.21;100556.41;4891310;29;20063;-78
2022/04/16 08:12:00;;;;;;;7.63;4.75;;;;;;;12.85;62.13;100550.75;4886185;29;20135;-78
2022/04/16 08:14:28;;;;;;;6.88;4.43;;;;;;;12.87;61.72;100553.31;4889454;29;20462;-75
2022/04/16 08:16:57;;;;;;;8.02;4.43;;;;;;;13.23;59.98;100550.09;4883453;29;20105;-74
2022/04/16 08:19:25;;;;;;;7.68;4.88;;;;;;;13.33;59.60;100553.03;4891216;29;20136;-75
2022/04/16 08:21:54;;;;;;;6.53;4.43;;;;;;;13.38;58.30;100575.00;4885159;29;20053;-76
2022/04/16 08:24:40;;;;;;;7.72;4.93;;;;;;;13.20;58.46;100561.00;4886727;29;20143;-74
2022/04/16 08:27:10;;;;;;;7.82;4.90;;;;;;;13.02;59.10;100573.72;4891329;29;20410;-77
2022/04/16 08:29:38;;;;;;;6.80;4.63;;;;;;;13.18;58.80;100574.47;4910819;29;20054;-73
2022/04/16 08:32:08;;;;;;;7.03;4.38;;;;;;;13.50;57.74;100562.59;4910539;29;20051;-72
2022/04/16 08:34:52;;;;;;;6.68;4.30;;;;;;;13.44;57.95;100566.56;4886626;29;20072;-81
2022/04/16 08:37:21;;;;;;;6.30;4.22;;;;;;;13.40;57.83;100562.34;4878799;29;20132;-79
2022/04/16 08:39:49;;;;;;;5.53;3.72;;;;;;;13.47;58.10;100566.34;4862825;29;20089;-75
2022/04/16 08:42:19;;;;;;;6.57;4.25;;;;;;;13.40;57.37;100551.63;4879734;29;20117;-77
2022/04/16 08:44:51;;;;;;;7.05;4.40;;;;;;;13.80;57.06;100570.38;4884931;29;20049;-78
2022/04/16 08:47:20;;;;;;;6.10;3.72;;;;;;;13.55;57.51;100565.81;4881454;29;20104;-77
2022/04/16 08:49:48;;;;;;;6.95;4.22;;;;;;;13.33;58.26;100566.41;4898511;29;20056;-77
2022/04/16 08:52:19;;;;;;;6.13;4.15;;;;;;;13.55;57.62;100572.03;4897815;29;20074;-77
2022/04/16 08:54:47;;;;;;;7.80;4.38;;;;;;;13.61;57.77;100563.59;4898046;29;20068;-78
2022/04/16 08:57:15;;;;;;;6.18;3.88;;;;;;;13.70;57.32;100567.44;4881219;29;20052;-74
2022/04/16 08:59:51;;;;;;;7.07;4.20;;;;;;;13.86;57.12;100570.81;4881373;29;20064;-78
2022/04/16 09:02:20;;;;;;;6.00;3.70;;;;;;;14.13;56.49;100569.88;4898314;29;20045;-75
2022/04/16 09:04:49;;;;;;;5.65;3.58;;;;;;;14.21;55.24;100568.38;4881149;29;20104;-78
2022/04/16 09:07:17;;;;;;;5.78;3.70;;;;;;;14.29;55.42;100571.38;4897945;29;20478;-78
2022/04/16 09:09:45;;;;;;;6.05;3.97;;;;;;;14.19;54.90;100567.63;4880878;29;20054;-77
2022/04/16 09:12:17;;;;;;;5.57;3.80;;;;;;;14.37;54.41;100567.28;4898224;29;20040;-79
2022/04/16 09:14:46;;;;;;;5.95;3.83;;;;;;;14.31;54.29;100574.81;4896274;29;20096;-81
2022/04/16 09:17:17;;;;;;;6.03;3.88;;;;;;;14.12;54.75;100581.56;4878844;29;20057;-77
2022/04/16 09:19:54;;;;;;;5.78;3.67;;;;;;;13.95;54.58;100580.03;4862382;29;20049;-76
2022/04/16 09:22:33;;;;;;;6.20;4.15;;;;;;;13.53;56.38;100575.81;4879478;29;20097;-84
2022/04/16 09:25:04;;;;;;;5.35;3.80;;;;;;;13.72;55.64;100579.81;4879004;29;20048;-76
2022/04/16 09:27:40;;;;;;;5.65;3.58;;;;;;;13.75;55.40;100576.91;4862799;29;20057;-78
2022/04/16 09:30:10;;;;;;;5.90;3.60;;;;;;;13.55;55.82;100576.53;4879400;29;20049;-80
2022/04/16 09:32:47;;;;;;;5.78;3.50;;;;;;;13.65;55.89;100583.84;4877726;29;20132;-77
2022/04/16 09:35:37;;;;;;;5.03;3.25;;;;;;;13.70;54.94;100581.75;4893084;29;20045;-77
2022/04/16 09:38:14;;;;;;;4.75;3.17;;;;;;;13.63;54.47;100580.44;4896818;29;20115;-80
2022/04/16 09:40:47;;;;;;;4.57;3.00;;;;;;;13.71;53.79;100586.13;4897790;29;20479;-76
2022/04/16 09:43:16;;;;;;;4.77;3.20;;;;;;;13.66;54.88;100580.22;4880929;29;20303;-78
2022/04/16 09:45:44;;;;;;;5.07;2.97;;;;;;;13.77;54.21;100583.97;4897339;29;20074;-78
2022/04/16 09:48:15;;;;;;;5.32;3.17;;;;;;;13.68;54.42;100583.63;4897659;29;20059;-77
2022/04/16 09:50:45;;;;;;;5.13;3.22;;;;;;;13.92;55.23;100591.84;4881005;29;20057;-78
2022/04/16 09:53:13;;;;;;;6.57;2.97;;;;;;;13.76;56.91;100577.78;4897841;29;20064;-76
2022/04/16 09:55:43;;;;;;;6.20;2.67;;;;;;;13.77;56.71;100583.97;4880606;29;20052;-77
2022/04/16 09:58:14;;;;;;;4.22;2.38;;;;;;;13.83;57.53;100581.75;4897637;29;20131;-75
2022/04/16 10:00:43;;;;;;;4.30;2.40;;;;;;;13.77;58.25;100586.66;4897451;29;20135;-75
2022/04/16 10:03:32;;;;;;;4.10;2.45;;;;;;;13.59;57.76;100584.25;4896159;29;20072;-76
2022/04/16 10:06:02;;;;;;;5.60;2.70;;;;;;;13.75;57.74;100582.28;4880663;29;20713;-77
2022/04/16 10:08:34;;;;;;;4.60;2.70;;;;;;;13.73;57.40;100581.53;4877157;29;20139;-76
2022/04/16 10:11:04;;;;;;;4.47;2.60;;;;;;;14.05;56.79;100583.81;4878807;29;20131;-77
2022/04/16 10:13:41;;;;;;;4.40;2.72;;;;;;;14.15;55.28;100575.97;4883025;29;20140;-79
2022/04/16 10:16:14;;;;;;;3.92;2.60;;;;;;;14.22;54.72;100577.28;4877294;29;20056;-78
2022/04/16 10:18:45;;;;;;;4.93;2.33;;;;;;;14.36;54.54;100579.84;4901430;29;20044;-79
2022/04/16 10:21:18;;;;;;;4.57;2.50;;;;;;;14.64;54.14;100581.44;4889445;29;20081;-82
2022/04/16 10:23:47;;;;;;;4.18;2.67;;;;;;;14.73;53.60;100572.72;4903190;29;20048;-84
2022/04/16 10:26:17;;;;;;;4.95;2.92;;;;;;;15.08;52.12;100574.69;4908729;29;20067;-81
2022/04/16 10:28:53;;;;;;;5.55;2.63;;;;;;;15.13;51.82;100573.34;4892499;29;20147;-80
2022/04/16 10:31:24;;;;;;;4.90;2.60;;;;;;;15.10;51.54;100564.66;4886476;29;20095;-78
2022/04/16 10:33:59;;;;;;;4.15;2.63;;;;;;;15.13;52.92;100559.91;4883999;29;20060;-79
2022/04/16 10:36:32;;;;;;;4.90;2.80;;;;;;;15.21;52.62;100567.41;4901661;29;20055;-80
2022/04/16 10:39:13;;;;;;;5.10;2.70;;;;;;;15.48;52.00;100563.63;4887018;29;20072;-79
2022/04/16 10:41:54;;;;;;;4.63;2.80;;;;;;;15.23;51.96;100570.84;4891718;29;20052;-81
2022/04/16 10:44:24;;;;;;;4.97;3.10;;;;;;;15.52;50.59;100565.97;4887786;29;20037;-80
2022/04/16 10:46:58;;;;;;;4.90;3.00;;;;;;;15.70;50.22;100561.06;4893419;29;20048;-77
2022/04/16 10:49:29;;;;;;;4.55;2.95;;;;;;;15.70;49.67;100555.66;4884343;29;20053;-79
2022/04/16 10:51:57;;;;;;;5.65;2.97;;;;;;;15.80;49.74;100555.81;4880554;29;20083;-77
2022/04/16 10:54:31;;;;;;;5.50;2.90;;;;;;;15.82;49.87;100560.09;4880300;29;20427;-78
2022/04/16 10:57:01;;;;;;;4.45;2.47;;;;;;;15.73;49.62;100555.47;4884360;29;20097;-78
2022/04/16 10:59:38;;;;;;;4.40;2.78;;;;;;;15.45;49.37;100556.66;4883124;29;20060;-78
2022/04/16 11:02:17;;;;;;;4.47;2.30;;;;;;;15.36;50.31;100554.69;4880560;29;20456;-79
2022/04/16 11:04:57;;;;;;;3.28;2.15;;;;;;;15.05;50.69;100556.06;4880421;29;20064;-78
2022/04/16 11:07:27;;;;;;;4.78;2.70;;;;;;;14.78;51.67;100561.66;4881149;29;20113;-77
2022/04/16 11:09:57;;;;;;;4.75;2.00;;;;;;;14.48;52.26;100573.66;4880707;29;20121;-77
2022/04/16 11:12:26;;;;;;;4.93;2.13;;;;;;;13.90;54.04;100566.13;4879143;29;20140;-80
2022/04/16 11:14:55;;;;;;;3.47;1.80;;;;;;;13.85;54.24;100569.09;4891430;29;20059;-82
2022/04/16 11:17:25;;;;;;;4.82;1.80;;;;;;;13.74;55.17;100567.16;4861597;29;20060;-78
2022/04/16 11:20:02;;;;;;;3.45;1.70;;;;;;;13.64;54.77;100566.06;4862829;29;20053;-79
2022/04/16 11:22:32;;;;;;;3.13;1.90;;;;;;;13.59;55.78;100568.19;4891353;29;20097;-77
2022/04/16 11:25:06;;;;;;;3.45;1.83;;;;;;;13.48;56.25;100585.94;4899164;29;20051;-76
2022/04/16 11:35:59;;;;;;;4.03;2.10;;;;;;;13.84;57.74;100585.28;4860640;29;20072;-75
2022/04/16 11:38:30;;;;;;;2.45;1.83;;;;;;;13.72;61.63;100584.31;4862569;29;20053;-76
2022/04/16 11:41:01;;;;;;;3.40;2.00;;;;;;;13.74;62.10;100585.06;4860975;29;20061;-76
2022/04/16 11:43:34;;;;;;;3.20;1.90;;;;;;;13.58;68.81;100582.56;4876629;29;20090;-76
2022/04/16 11:46:11;;;;;;;2.97;1.90;;;;;;;13.50;66.79;100574.16;4872597;29;20049;-75
2022/04/16 11:48:46;;;;;;;3.45;2.17;;;;;;;13.71;67.50;100572.72;4879219;29;20418;-79
2022/04/16 11:51:17;;;;;;;3.38;2.10;;;;;;;14.07;67.94;100572.97;4879450;29;20049;-77
2022/04/16 11:53:47;;;;;;;3.30;2.10;;;;;;;14.19;66.99;100561.41;4880511;29;20057;-78